sensor_id;sensor_type;location;lat;lon;timestamp;P1;durP1;ratioP1;P2;durP2;ratioP2
11771;SDS011;12556;55.748;13.194;2023-02-18T00:02:11;18.33;;;4.23;;
11771;SDS011;12556;55.748;13.194;2023-02-18T00:04:38;12.00;;;3.27;;
11771;SDS011;12556;55.748;13.194;2023-02-18T00:07:05;18.43;;;4.03;;
11771;SDS011;12556;55.748;13.194;2023-02-18T00:09:32;13.10;;;3.90;;
11771;SDS011;12556;55.748;13.194;2023-02-18T00:11:59;17.03;;;4.07;;
11771;SDS011;12556;55.748;13.194;2023-02-18T00:14:26;12.47;;;4.13;;
11771;SDS011;12556;55.748;13.194;2023-02-18T00:16:53;13.93;;;3.93;;
11771;SDS011;12556;55.748;13.194;2023-02-18T00:19:21;11.93;;;2.93;;
11771;SDS011;12556;55.748;13.194;2023-02-18T00:21:48;13.50;;;3.77;;
11771;SDS011;12556;55.748;13.194;2023-02-18T00:24:15;16.53;;;3.70;;
11771;SDS011;12556;55.748;13.194;2023-02-18T00:26:42;15.73;;;3.40;;
11771;SDS011;12556;55.748;13.194;2023-02-18T00:29:09;11.03;;;3.80;;
11771;SDS011;12556;55.748;13.194;2023-02-18T00:31:38;12.60;;;3.43;;
11771;SDS011;12556;55.748;13.194;2023-02-18T00:34:05;20.67;;;4.20;;
11771;SDS011;12556;55.748;13.194;2023-02-18T00:36:34;11.57;;;3.57;;
11771;SDS011;12556;55.748;13.194;2023-02-18T00:39:07;20.57;;;3.97;;
11771;SDS011;12556;55.748;13.194;2023-02-18T00:41:35;17.20;;;4.23;;
11771;SDS011;12556;55.748;13.194;2023-02-18T00:44:02;17.30;;;3.97;;
11771;SDS011;12556;55.748;13.194;2023-02-18T00:46:31;18.27;;;3.93;;
11771;SDS011;12556;55.748;13.194;2023-02-18T00:48:58;18.00;;;4.27;;
11771;SDS011;12556;55.748;13.194;2023-02-18T00:51:25;13.37;;;3.43;;
11771;SDS011;12556;55.748;13.194;2023-02-18T00:53:53;13.47;;;4.27;;
11771;SDS011;12556;55.748;13.194;2023-02-18T00:56:20;19.63;;;4.10;;
11771;SDS011;12556;55.748;13.194;2023-02-18T00:58:47;12.53;;;4.27;;
11771;SDS011;12556;55.748;13.194;2023-02-18T01:01:14;18.20;;;4.63;;
11771;SDS011;12556;55.748;13.194;2023-02-18T01:03:41;10.37;;;3.97;;
11771;SDS011;12556;55.748;13.194;2023-02-18T01:06:08;16.33;;;4.37;;
11771;SDS011;12556;55.748;13.194;2023-02-18T01:08:36;11.00;;;3.87;;
11771;SDS011;12556;55.748;13.194;2023-02-18T01:11:05;16.30;;;3.87;;
11771;SDS011;12556;55.748;13.194;2023-02-18T01:13:34;14.37;;;4.00;;
11771;SDS011;12556;55.748;13.194;2023-02-18T01:16:01;16.03;;;4.10;;
11771;SDS011;12556;55.748;13.194;2023-02-18T01:18:28;12.57;;;3.63;;
11771;SDS011;12556;55.748;13.194;2023-02-18T01:20:56;12.70;;;3.70;;
11771;SDS011;12556;55.748;13.194;2023-02-18T01:23:23;12.00;;;3.90;;
11771;SDS011;12556;55.748;13.194;2023-02-18T01:25:50;15.60;;;3.60;;
11771;SDS011;12556;55.748;13.194;2023-02-18T01:28:19;16.90;;;3.77;;
11771;SDS011;12556;55.748;13.194;2023-02-18T01:30:49;17.20;;;3.93;;
11771;SDS011;12556;55.748;13.194;2023-02-18T01:33:16;18.83;;;3.47;;
11771;SDS011;12556;55.748;13.194;2023-02-18T01:35:42;21.80;;;4.60;;
11771;SDS011;12556;55.748;13.194;2023-02-18T01:38:09;11.80;;;3.50;;
11771;SDS011;12556;55.748;13.194;2023-02-18T01:40:43;16.80;;;3.67;;
11771;SDS011;12556;55.748;13.194;2023-02-18T01:43:12;12.93;;;4.10;;
11771;SDS011;12556;55.748;13.194;2023-02-18T01:45:44;17.10;;;4.60;;
11771;SDS011;12556;55.748;13.194;2023-02-18T01:48:16;18.80;;;3.60;;
11771;SDS011;12556;55.748;13.194;2023-02-18T01:50:46;11.17;;;3.83;;
11771;SDS011;12556;55.748;13.194;2023-02-18T01:53:17;11.33;;;3.47;;
11771;SDS011;12556;55.748;13.194;2023-02-18T01:55:48;18.83;;;4.50;;
11771;SDS011;12556;55.748;13.194;2023-02-18T01:58:15;13.07;;;4.27;;
11771;SDS011;12556;55.748;13.194;2023-02-18T02:00:45;13.23;;;4.07;;
11771;SDS011;12556;55.748;13.194;2023-02-18T02:03:12;16.80;;;4.20;;
11771;SDS011;12556;55.748;13.194;2023-02-18T02:05:38;15.83;;;3.73;;
11771;SDS011;12556;55.748;13.194;2023-02-18T02:08:06;17.30;;;3.90;;
11771;SDS011;12556;55.748;13.194;2023-02-18T02:10:35;16.13;;;4.33;;
11771;SDS011;12556;55.748;13.194;2023-02-18T02:13:11;13.13;;;4.30;;
11771;SDS011;12556;55.748;13.194;2023-02-18T02:15:43;11.50;;;4.30;;
11771;SDS011;12556;55.748;13.194;2023-02-18T02:18:29;13.07;;;3.67;;
11771;SDS011;12556;55.748;13.194;2023-02-18T02:21:16;12.77;;;3.53;;
11771;SDS011;12556;55.748;13.194;2023-02-18T02:24:27;13.70;;;3.47;;
11771;SDS011;12556;55.748;13.194;2023-02-18T02:27:13;17.03;;;3.93;;
11771;SDS011;12556;55.748;13.194;2023-02-18T02:33:02;18.07;;;4.13;;
11771;SDS011;12556;55.748;13.194;2023-02-18T02:36:06;22.27;;;5.50;;
11771;SDS011;12556;55.748;13.194;2023-02-18T02:38:42;14.70;;;4.07;;
11771;SDS011;12556;55.748;13.194;2023-02-18T02:41:18;10.87;;;3.43;;
11771;SDS011;12556;55.748;13.194;2023-02-18T02:43:55;12.00;;;3.47;;
11771;SDS011;12556;55.748;13.194;2023-02-18T02:46:34;15.03;;;3.33;;
11771;SDS011;12556;55.748;13.194;2023-02-18T02:49:08;18.20;;;4.47;;
11771;SDS011;12556;55.748;13.194;2023-02-18T02:51:47;13.10;;;4.33;;
11771;SDS011;12556;55.748;13.194;2023-02-18T02:54:20;16.10;;;4.17;;
11771;SDS011;12556;55.748;13.194;2023-02-18T02:56:48;21.30;;;5.37;;
11771;SDS011;12556;55.748;13.194;2023-02-18T02:59:15;14.17;;;3.67;;
11771;SDS011;12556;55.748;13.194;2023-02-18T03:01:49;14.83;;;4.43;;
11771;SDS011;12556;55.748;13.194;2023-02-18T03:04:30;17.00;;;3.43;;
11771;SDS011;12556;55.748;13.194;2023-02-18T03:10:19;20.83;;;4.20;;
11771;SDS011;12556;55.748;13.194;2023-02-18T03:13:04;12.93;;;3.77;;
11771;SDS011;12556;55.748;13.194;2023-02-18T03:15:38;12.90;;;3.87;;
11771;SDS011;12556;55.748;13.194;2023-02-18T03:18:14;14.63;;;3.93;;
11771;SDS011;12556;55.748;13.194;2023-02-18T03:20:45;15.13;;;3.83;;
11771;SDS011;12556;55.748;13.194;2023-02-18T03:23:20;15.43;;;4.33;;
11771;SDS011;12556;55.748;13.194;2023-02-18T03:25:52;16.73;;;4.33;;
11771;SDS011;12556;55.748;13.194;2023-02-18T03:28:21;9.40;;;3.47;;
11771;SDS011;12556;55.748;13.194;2023-02-18T03:30:52;14.77;;;3.67;;
11771;SDS011;12556;55.748;13.194;2023-02-18T03:33:22;15.10;;;3.57;;
11771;SDS011;12556;55.748;13.194;2023-02-18T03:35:52;10.60;;;3.20;;
11771;SDS011;12556;55.748;13.194;2023-02-18T03:38:23;15.17;;;4.07;;
11771;SDS011;12556;55.748;13.194;2023-02-18T03:40:55;12.20;;;3.20;;
11771;SDS011;12556;55.748;13.194;2023-02-18T03:43:22;16.57;;;4.07;;
11771;SDS011;12556;55.748;13.194;2023-02-18T03:45:49;12.40;;;3.53;;
11771;SDS011;12556;55.748;13.194;2023-02-18T03:48:16;15.73;;;3.53;;
11771;SDS011;12556;55.748;13.194;2023-02-18T03:50:43;15.10;;;4.27;;
11771;SDS011;12556;55.748;13.194;2023-02-18T03:53:10;16.60;;;2.87;;
11771;SDS011;12556;55.748;13.194;2023-02-18T03:55:38;16.20;;;3.63;;
11771;SDS011;12556;55.748;13.194;2023-02-18T03:58:06;17.33;;;4.00;;
11771;SDS011;12556;55.748;13.194;2023-02-18T04:00:33;11.13;;;3.37;;
11771;SDS011;12556;55.748;13.194;2023-02-18T04:03:00;14.57;;;3.73;;
11771;SDS011;12556;55.748;13.194;2023-02-18T04:05:27;10.13;;;2.63;;
11771;SDS011;12556;55.748;13.194;2023-02-18T04:07:54;11.97;;;3.30;;
11771;SDS011;12556;55.748;13.194;2023-02-18T04:10:21;9.50;;;3.67;;
11771;SDS011;12556;55.748;13.194;2023-02-18T04:12:49;11.93;;;3.27;;
11771;SDS011;12556;55.748;13.194;2023-02-18T04:15:16;13.00;;;3.03;;
11771;SDS011;12556;55.748;13.194;2023-02-18T04:17:43;14.60;;;3.50;;
11771;SDS011;12556;55.748;13.194;2023-02-18T04:20:10;13.90;;;3.40;;
11771;SDS011;12556;55.748;13.194;2023-02-18T04:22:37;16.63;;;4.13;;
11771;SDS011;12556;55.748;13.194;2023-02-18T04:25:05;15.23;;;3.70;;
11771;SDS011;12556;55.748;13.194;2023-02-18T04:27:32;11.33;;;3.40;;
11771;SDS011;12556;55.748;13.194;2023-02-18T04:30:01;13.17;;;2.70;;
11771;SDS011;12556;55.748;13.194;2023-02-18T04:32:28;15.73;;;3.33;;
11771;SDS011;12556;55.748;13.194;2023-02-18T04:34:55;14.43;;;3.50;;
11771;SDS011;12556;55.748;13.194;2023-02-18T04:37:22;12.17;;;3.43;;
11771;SDS011;12556;55.748;13.194;2023-02-18T04:39:48;14.43;;;3.90;;
11771;SDS011;12556;55.748;13.194;2023-02-18T04:42:15;11.77;;;3.00;;
11771;SDS011;12556;55.748;13.194;2023-02-18T04:44:42;12.13;;;3.63;;
11771;SDS011;12556;55.748;13.194;2023-02-18T04:47:11;9.57;;;3.37;;
11771;SDS011;12556;55.748;13.194;2023-02-18T04:49:37;8.07;;;3.10;;
11771;SDS011;12556;55.748;13.194;2023-02-18T04:52:05;20.17;;;3.70;;
11771;SDS011;12556;55.748;13.194;2023-02-18T04:54:31;13.10;;;3.77;;
11771;SDS011;12556;55.748;13.194;2023-02-18T04:56:58;15.43;;;3.40;;
11771;SDS011;12556;55.748;13.194;2023-02-18T04:59:25;12.93;;;3.27;;
11771;SDS011;12556;55.748;13.194;2023-02-18T05:01:52;11.53;;;3.30;;
11771;SDS011;12556;55.748;13.194;2023-02-18T05:04:20;8.70;;;3.60;;
11771;SDS011;12556;55.748;13.194;2023-02-18T05:06:47;9.90;;;3.43;;
11771;SDS011;12556;55.748;13.194;2023-02-18T05:09:14;11.80;;;3.40;;
11771;SDS011;12556;55.748;13.194;2023-02-18T05:11:41;7.73;;;2.70;;
11771;SDS011;12556;55.748;13.194;2023-02-18T05:14:08;18.80;;;4.00;;
11771;SDS011;12556;55.748;13.194;2023-02-18T05:16:35;13.73;;;4.40;;
11771;SDS011;12556;55.748;13.194;2023-02-18T05:19:02;17.80;;;3.67;;
11771;SDS011;12556;55.748;13.194;2023-02-18T05:21:31;13.87;;;3.50;;
11771;SDS011;12556;55.748;13.194;2023-02-18T05:23:58;14.20;;;4.00;;
11771;SDS011;12556;55.748;13.194;2023-02-18T05:26:25;13.37;;;2.97;;
11771;SDS011;12556;55.748;13.194;2023-02-18T05:28:52;7.87;;;2.53;;
11771;SDS011;12556;55.748;13.194;2023-02-18T05:31:19;12.60;;;3.47;;
11771;SDS011;12556;55.748;13.194;2023-02-18T05:33:46;15.37;;;3.60;;
11771;SDS011;12556;55.748;13.194;2023-02-18T05:36:13;10.03;;;3.80;;
11771;SDS011;12556;55.748;13.194;2023-02-18T05:38:41;15.70;;;3.67;;
11771;SDS011;12556;55.748;13.194;2023-02-18T05:41:08;13.63;;;3.10;;
11771;SDS011;12556;55.748;13.194;2023-02-18T05:43:35;10.40;;;2.67;;
11771;SDS011;12556;55.748;13.194;2023-02-18T05:46:26;15.93;;;4.03;;
11771;SDS011;12556;55.748;13.194;2023-02-18T05:48:52;11.63;;;3.23;;
11771;SDS011;12556;55.748;13.194;2023-02-18T05:51:19;11.00;;;3.43;;
11771;SDS011;12556;55.748;13.194;2023-02-18T05:53:47;9.67;;;3.47;;
11771;SDS011;12556;55.748;13.194;2023-02-18T05:56:14;16.57;;;3.37;;
11771;SDS011;12556;55.748;13.194;2023-02-18T05:58:41;14.23;;;3.57;;
11771;SDS011;12556;55.748;13.194;2023-02-18T06:01:08;9.67;;;2.57;;
11771;SDS011;12556;55.748;13.194;2023-02-18T06:03:36;14.60;;;4.30;;
11771;SDS011;12556;55.748;13.194;2023-02-18T06:06:03;16.73;;;3.97;;
11771;SDS011;12556;55.748;13.194;2023-02-18T06:08:30;13.33;;;3.47;;
11771;SDS011;12556;55.748;13.194;2023-02-18T06:10:58;15.17;;;3.63;;
11771;SDS011;12556;55.748;13.194;2023-02-18T06:13:25;11.23;;;3.90;;
11771;SDS011;12556;55.748;13.194;2023-02-18T06:15:52;16.10;;;3.77;;
11771;SDS011;12556;55.748;13.194;2023-02-18T06:18:19;19.13;;;3.63;;
11771;SDS011;12556;55.748;13.194;2023-02-18T06:20:46;9.50;;;3.13;;
11771;SDS011;12556;55.748;13.194;2023-02-18T06:23:13;12.60;;;3.70;;
11771;SDS011;12556;55.748;13.194;2023-02-18T06:25:41;15.80;;;3.47;;
11771;SDS011;12556;55.748;13.194;2023-02-18T06:28:09;17.33;;;3.57;;
11771;SDS011;12556;55.748;13.194;2023-02-18T06:30:36;14.20;;;3.47;;
11771;SDS011;12556;55.748;13.194;2023-02-18T06:33:03;11.90;;;3.80;;
11771;SDS011;12556;55.748;13.194;2023-02-18T06:35:30;15.50;;;3.60;;
11771;SDS011;12556;55.748;13.194;2023-02-18T06:37:57;17.37;;;3.50;;
11771;SDS011;12556;55.748;13.194;2023-02-18T06:40:24;19.30;;;4.17;;
11771;SDS011;12556;55.748;13.194;2023-02-18T06:42:52;11.03;;;2.87;;
11771;SDS011;12556;55.748;13.194;2023-02-18T06:45:20;14.27;;;3.63;;
11771;SDS011;12556;55.748;13.194;2023-02-18T06:47:47;11.33;;;3.03;;
11771;SDS011;12556;55.748;13.194;2023-02-18T06:50:14;14.17;;;3.80;;
11771;SDS011;12556;55.748;13.194;2023-02-18T06:52:41;18.70;;;3.93;;
11771;SDS011;12556;55.748;13.194;2023-02-18T06:55:08;14.30;;;3.17;;
11771;SDS011;12556;55.748;13.194;2023-02-18T06:57:35;14.67;;;3.93;;
11771;SDS011;12556;55.748;13.194;2023-02-18T07:00:06;17.63;;;3.73;;
11771;SDS011;12556;55.748;13.194;2023-02-18T07:02:35;13.90;;;4.00;;
11771;SDS011;12556;55.748;13.194;2023-02-18T07:05:02;18.67;;;4.10;;
11771;SDS011;12556;55.748;13.194;2023-02-18T07:07:29;14.90;;;4.30;;
11771;SDS011;12556;55.748;13.194;2023-02-18T07:09:56;21.27;;;4.37;;
11771;SDS011;12556;55.748;13.194;2023-02-18T07:12:23;17.33;;;4.63;;
11771;SDS011;12556;55.748;13.194;2023-02-18T07:14:50;15.63;;;4.00;;
11771;SDS011;12556;55.748;13.194;2023-02-18T07:17:17;16.33;;;3.53;;
11771;SDS011;12556;55.748;13.194;2023-02-18T07:19:45;19.00;;;4.97;;
11771;SDS011;12556;55.748;13.194;2023-02-18T07:22:12;16.73;;;4.10;;
11771;SDS011;12556;55.748;13.194;2023-02-18T07:24:39;15.93;;;4.47;;
11771;SDS011;12556;55.748;13.194;2023-02-18T07:27:06;18.73;;;4.87;;
11771;SDS011;12556;55.748;13.194;2023-02-18T07:29:33;16.83;;;3.53;;
11771;SDS011;12556;55.748;13.194;2023-02-18T07:32:00;10.80;;;3.30;;
11771;SDS011;12556;55.748;13.194;2023-02-18T07:34:27;17.07;;;4.27;;
11771;SDS011;12556;55.748;13.194;2023-02-18T07:36:55;20.87;;;4.67;;
11771;SDS011;12556;55.748;13.194;2023-02-18T07:39:22;14.57;;;3.40;;
11771;SDS011;12556;55.748;13.194;2023-02-18T07:41:49;16.33;;;3.70;;
11771;SDS011;12556;55.748;13.194;2023-02-18T07:44:16;12.87;;;4.60;;
11771;SDS011;12556;55.748;13.194;2023-02-18T07:46:43;22.93;;;3.77;;
11771;SDS011;12556;55.748;13.194;2023-02-18T07:49:10;19.30;;;4.03;;
11771;SDS011;12556;55.748;13.194;2023-02-18T07:51:37;16.40;;;4.37;;
11771;SDS011;12556;55.748;13.194;2023-02-18T07:54:05;18.27;;;4.33;;
11771;SDS011;12556;55.748;13.194;2023-02-18T07:56:32;14.10;;;3.90;;
11771;SDS011;12556;55.748;13.194;2023-02-18T07:58:59;18.30;;;4.50;;
11771;SDS011;12556;55.748;13.194;2023-02-18T08:01:26;15.63;;;4.73;;
11771;SDS011;12556;55.748;13.194;2023-02-18T08:03:53;25.33;;;4.87;;
11771;SDS011;12556;55.748;13.194;2023-02-18T08:06:21;14.00;;;4.03;;
11771;SDS011;12556;55.748;13.194;2023-02-18T08:08:53;14.90;;;3.87;;
11771;SDS011;12556;55.748;13.194;2023-02-18T08:11:21;20.00;;;4.37;;
11771;SDS011;12556;55.748;13.194;2023-02-18T08:13:48;17.47;;;4.40;;
11771;SDS011;12556;55.748;13.194;2023-02-18T08:16:15;23.93;;;5.30;;
11771;SDS011;12556;55.748;13.194;2023-02-18T08:18:43;22.30;;;5.10;;
11771;SDS011;12556;55.748;13.194;2023-02-18T08:21:11;17.00;;;4.87;;
11771;SDS011;12556;55.748;13.194;2023-02-18T08:23:39;13.47;;;4.33;;
11771;SDS011;12556;55.748;13.194;2023-02-18T08:26:06;20.47;;;4.67;;
11771;SDS011;12556;55.748;13.194;2023-02-18T08:28:34;17.50;;;4.57;;
11771;SDS011;12556;55.748;13.194;2023-02-18T08:31:01;23.67;;;4.87;;
11771;SDS011;12556;55.748;13.194;2023-02-18T08:33:29;23.73;;;5.20;;
11771;SDS011;12556;55.748;13.194;2023-02-18T08:35:56;19.57;;;5.07;;
11771;SDS011;12556;55.748;13.194;2023-02-18T08:38:23;17.77;;;4.67;;
11771;SDS011;12556;55.748;13.194;2023-02-18T08:40:50;14.93;;;4.97;;
11771;SDS011;12556;55.748;13.194;2023-02-18T08:43:26;16.67;;;4.20;;
11771;SDS011;12556;55.748;13.194;2023-02-18T08:45:54;16.93;;;4.63;;
11771;SDS011;12556;55.748;13.194;2023-02-18T08:48:22;23.33;;;5.73;;
11771;SDS011;12556;55.748;13.194;2023-02-18T08:50:49;19.33;;;5.47;;
11771;SDS011;12556;55.748;13.194;2023-02-18T08:53:16;15.97;;;4.23;;
11771;SDS011;12556;55.748;13.194;2023-02-18T08:55:44;16.30;;;4.63;;
11771;SDS011;12556;55.748;13.194;2023-02-18T08:58:11;18.63;;;5.23;;
11771;SDS011;12556;55.748;13.194;2023-02-18T09:00:39;9.53;;;3.77;;
11771;SDS011;12556;55.748;13.194;2023-02-18T09:03:10;15.77;;;4.20;;
11771;SDS011;12556;55.748;13.194;2023-02-18T09:05:38;13.57;;;4.47;;
11771;SDS011;12556;55.748;13.194;2023-02-18T09:08:05;15.43;;;4.03;;
11771;SDS011;12556;55.748;13.194;2023-02-18T09:10:32;15.60;;;3.43;;
11771;SDS011;12556;55.748;13.194;2023-02-18T09:12:59;11.30;;;3.77;;
11771;SDS011;12556;55.748;13.194;2023-02-18T09:15:26;16.67;;;4.03;;
11771;SDS011;12556;55.748;13.194;2023-02-18T09:17:53;19.50;;;4.73;;
11771;SDS011;12556;55.748;13.194;2023-02-18T09:20:21;13.83;;;3.97;;
11771;SDS011;12556;55.748;13.194;2023-02-18T09:22:48;18.33;;;4.03;;
11771;SDS011;12556;55.748;13.194;2023-02-18T09:25:15;11.17;;;3.53;;
11771;SDS011;12556;55.748;13.194;2023-02-18T09:27:42;11.40;;;3.53;;
11771;SDS011;12556;55.748;13.194;2023-02-18T09:30:09;17.33;;;3.53;;
11771;SDS011;12556;55.748;13.194;2023-02-18T09:32:36;11.33;;;3.47;;
11771;SDS011;12556;55.748;13.194;2023-02-18T09:35:03;13.67;;;3.70;;
11771;SDS011;12556;55.748;13.194;2023-02-18T09:37:32;10.37;;;3.30;;
11771;SDS011;12556;55.748;13.194;2023-02-18T09:39:58;15.53;;;3.77;;
11771;SDS011;12556;55.748;13.194;2023-02-18T09:42:27;14.77;;;3.77;;
11771;SDS011;12556;55.748;13.194;2023-02-18T09:44:58;12.47;;;2.97;;
11771;SDS011;12556;55.748;13.194;2023-02-18T09:47:29;14.53;;;3.50;;
11771;SDS011;12556;55.748;13.194;2023-02-18T09:50:04;11.93;;;2.90;;
11771;SDS011;12556;55.748;13.194;2023-02-18T09:52:35;10.97;;;3.53;;
11771;SDS011;12556;55.748;13.194;2023-02-18T09:55:13;9.30;;;3.33;;
11771;SDS011;12556;55.748;13.194;2023-02-18T09:57:44;11.70;;;3.10;;
11771;SDS011;12556;55.748;13.194;2023-02-18T10:00:14;8.93;;;3.07;;
11771;SDS011;12556;55.748;13.194;2023-02-18T10:02:48;12.67;;;3.03;;
11771;SDS011;12556;55.748;13.194;2023-02-18T10:05:20;12.17;;;3.33;;
11771;SDS011;12556;55.748;13.194;2023-02-18T10:07:50;10.63;;;3.03;;
11771;SDS011;12556;55.748;13.194;2023-02-18T10:10:24;9.70;;;2.77;;
11771;SDS011;12556;55.748;13.194;2023-02-18T10:12:57;21.87;;;3.93;;
11771;SDS011;12556;55.748;13.194;2023-02-18T10:15:26;12.07;;;2.90;;
11771;SDS011;12556;55.748;13.194;2023-02-18T10:17:54;11.57;;;3.47;;
11771;SDS011;12556;55.748;13.194;2023-02-18T10:20:23;13.13;;;3.23;;
11771;SDS011;12556;55.748;13.194;2023-02-18T10:22:54;12.77;;;3.77;;
11771;SDS011;12556;55.748;13.194;2023-02-18T10:25:25;13.73;;;3.13;;
11771;SDS011;12556;55.748;13.194;2023-02-18T10:27:53;13.70;;;3.77;;
11771;SDS011;12556;55.748;13.194;2023-02-18T10:30:22;15.30;;;3.67;;
11771;SDS011;12556;55.748;13.194;2023-02-18T10:32:54;17.87;;;3.50;;
11771;SDS011;12556;55.748;13.194;2023-02-18T10:35:27;9.67;;;2.83;;
11771;SDS011;12556;55.748;13.194;2023-02-18T10:38:03;8.67;;;3.43;;
11771;SDS011;12556;55.748;13.194;2023-02-18T10:40:40;13.73;;;3.53;;
11771;SDS011;12556;55.748;13.194;2023-02-18T10:43:19;16.47;;;4.20;;
11771;SDS011;12556;55.748;13.194;2023-02-18T10:45:53;15.07;;;3.63;;
11771;SDS011;12556;55.748;13.194;2023-02-18T10:48:34;14.33;;;3.73;;
11771;SDS011;12556;55.748;13.194;2023-02-18T10:51:17;8.47;;;3.13;;
11771;SDS011;12556;55.748;13.194;2023-02-18T10:53:50;14.40;;;3.07;;
11771;SDS011;12556;55.748;13.194;2023-02-18T10:59:11;10.97;;;3.23;;
11771;SDS011;12556;55.748;13.194;2023-02-18T11:01:39;11.57;;;3.60;;
11771;SDS011;12556;55.748;13.194;2023-02-18T11:04:11;11.07;;;3.33;;
11771;SDS011;12556;55.748;13.194;2023-02-18T11:06:41;8.27;;;3.07;;
11771;SDS011;12556;55.748;13.194;2023-02-18T11:12:02;18.13;;;3.80;;
11771;SDS011;12556;55.748;13.194;2023-02-18T11:14:37;10.67;;;3.30;;
11771;SDS011;12556;55.748;13.194;2023-02-18T11:17:08;13.83;;;3.50;;
11771;SDS011;12556;55.748;13.194;2023-02-18T11:19:50;11.83;;;3.17;;
11771;SDS011;12556;55.748;13.194;2023-02-18T11:22:20;16.90;;;3.73;;
11771;SDS011;12556;55.748;13.194;2023-02-18T11:24:50;13.90;;;3.60;;
11771;SDS011;12556;55.748;13.194;2023-02-18T11:27:24;12.90;;;3.73;;
11771;SDS011;12556;55.748;13.194;2023-02-18T11:29:55;11.97;;;3.13;;
11771;SDS011;12556;55.748;13.194;2023-02-18T11:32:27;9.77;;;3.17;;
11771;SDS011;12556;55.748;13.194;2023-02-18T11:34:55;13.90;;;4.20;;
11771;SDS011;12556;55.748;13.194;2023-02-18T11:37:23;16.60;;;3.90;;
11771;SDS011;12556;55.748;13.194;2023-02-18T11:39:51;11.43;;;3.57;;
11771;SDS011;12556;55.748;13.194;2023-02-18T11:42:21;12.23;;;3.47;;
11771;SDS011;12556;55.748;13.194;2023-02-18T11:44:51;11.33;;;3.50;;
11771;SDS011;12556;55.748;13.194;2023-02-18T11:47:20;16.50;;;3.57;;
11771;SDS011;12556;55.748;13.194;2023-02-18T11:49:59;10.23;;;3.20;;
11771;SDS011;12556;55.748;13.194;2023-02-18T11:52:32;13.40;;;3.47;;
11771;SDS011;12556;55.748;13.194;2023-02-18T11:55:04;11.90;;;3.30;;
11771;SDS011;12556;55.748;13.194;2023-02-18T11:57:33;14.63;;;3.30;;
11771;SDS011;12556;55.748;13.194;2023-02-18T12:00:03;11.57;;;3.10;;
11771;SDS011;12556;55.748;13.194;2023-02-18T12:02:40;8.97;;;3.50;;
11771;SDS011;12556;55.748;13.194;2023-02-18T12:05:09;21.47;;;3.83;;
11771;SDS011;12556;55.748;13.194;2023-02-18T12:07:41;14.93;;;3.37;;
11771;SDS011;12556;55.748;13.194;2023-02-18T12:10:12;9.97;;;2.93;;
11771;SDS011;12556;55.748;13.194;2023-02-18T12:12:44;13.40;;;3.03;;
11771;SDS011;12556;55.748;13.194;2023-02-18T12:15:14;11.60;;;3.40;;
11771;SDS011;12556;55.748;13.194;2023-02-18T12:17:48;14.63;;;4.10;;
11771;SDS011;12556;55.748;13.194;2023-02-18T12:20:32;8.63;;;2.67;;
11771;SDS011;12556;55.748;13.194;2023-02-18T12:23:14;10.87;;;2.53;;
11771;SDS011;12556;55.748;13.194;2023-02-18T12:25:50;11.13;;;2.90;;
11771;SDS011;12556;55.748;13.194;2023-02-18T12:28:28;10.83;;;3.03;;
11771;SDS011;12556;55.748;13.194;2023-02-18T12:31:18;11.43;;;3.20;;
11771;SDS011;12556;55.748;13.194;2023-02-18T12:33:57;10.40;;;2.83;;
11771;SDS011;12556;55.748;13.194;2023-02-18T12:36:37;9.63;;;2.87;;
11771;SDS011;12556;55.748;13.194;2023-02-18T12:39:14;11.37;;;3.03;;
11771;SDS011;12556;55.748;13.194;2023-02-18T12:41:54;7.60;;;2.67;;
11771;SDS011;12556;55.748;13.194;2023-02-18T12:44:36;11.77;;;2.60;;
11771;SDS011;12556;55.748;13.194;2023-02-18T12:53:06;7.37;;;2.53;;
11771;SDS011;12556;55.748;13.194;2023-02-18T12:55:55;10.10;;;2.67;;
11771;SDS011;12556;55.748;13.194;2023-02-18T12:58:40;11.93;;;3.57;;
11771;SDS011;12556;55.748;13.194;2023-02-18T13:01:18;10.20;;;2.87;;
11771;SDS011;12556;55.748;13.194;2023-02-18T13:04:11;9.00;;;3.07;;
11771;SDS011;12556;55.748;13.194;2023-02-18T13:07:13;10.07;;;3.13;;
11771;SDS011;12556;55.748;13.194;2023-02-18T13:10:03;8.03;;;3.17;;
11771;SDS011;12556;55.748;13.194;2023-02-18T13:12:45;7.77;;;2.50;;
11771;SDS011;12556;55.748;13.194;2023-02-18T13:15:22;9.73;;;2.57;;
11771;SDS011;12556;55.748;13.194;2023-02-18T13:17:55;14.73;;;2.90;;
11771;SDS011;12556;55.748;13.194;2023-02-18T13:20:27;12.90;;;3.57;;
11771;SDS011;12556;55.748;13.194;2023-02-18T13:23:02;9.83;;;3.03;;
11771;SDS011;12556;55.748;13.194;2023-02-18T13:25:31;8.20;;;3.00;;
11771;SDS011;12556;55.748;13.194;2023-02-18T13:28:03;11.97;;;3.23;;
11771;SDS011;12556;55.748;13.194;2023-02-18T13:30:40;5.70;;;2.40;;
11771;SDS011;12556;55.748;13.194;2023-02-18T13:33:13;9.40;;;2.60;;
11771;SDS011;12556;55.748;13.194;2023-02-18T13:35:48;8.53;;;3.13;;
11771;SDS011;12556;55.748;13.194;2023-02-18T13:38:30;9.43;;;3.00;;
11771;SDS011;12556;55.748;13.194;2023-02-18T13:41:17;9.30;;;2.63;;
11771;SDS011;12556;55.748;13.194;2023-02-18T13:43:45;13.03;;;3.10;;
11771;SDS011;12556;55.748;13.194;2023-02-18T13:46:14;8.33;;;2.97;;
11771;SDS011;12556;55.748;13.194;2023-02-18T13:48:43;10.33;;;3.10;;
11771;SDS011;12556;55.748;13.194;2023-02-18T13:51:13;6.63;;;2.67;;
11771;SDS011;12556;55.748;13.194;2023-02-18T13:53:43;9.93;;;2.40;;
11771;SDS011;12556;55.748;13.194;2023-02-18T13:56:19;10.13;;;2.20;;
11771;SDS011;12556;55.748;13.194;2023-02-18T13:58:48;13.27;;;3.47;;
11771;SDS011;12556;55.748;13.194;2023-02-18T14:01:23;10.23;;;2.60;;
11771;SDS011;12556;55.748;13.194;2023-02-18T14:04:00;8.27;;;2.30;;
11771;SDS011;12556;55.748;13.194;2023-02-18T14:06:28;10.47;;;2.60;;
11771;SDS011;12556;55.748;13.194;2023-02-18T14:12:14;9.00;;;2.07;;
11771;SDS011;12556;55.748;13.194;2023-02-18T14:14:49;9.70;;;2.00;;
11771;SDS011;12556;55.748;13.194;2023-02-18T14:26:09;11.17;;;2.93;;
11771;SDS011;12556;55.748;13.194;2023-02-18T14:28:48;10.93;;;2.50;;
11771;SDS011;12556;55.748;13.194;2023-02-18T14:31:22;10.27;;;2.53;;
11771;SDS011;12556;55.748;13.194;2023-02-18T14:34:17;9.00;;;2.80;;
11771;SDS011;12556;55.748;13.194;2023-02-18T14:37:15;6.23;;;2.00;;
11771;SDS011;12556;55.748;13.194;2023-02-18T14:39:53;9.23;;;2.60;;
11771;SDS011;12556;55.748;13.194;2023-02-18T14:42:31;9.43;;;2.43;;
11771;SDS011;12556;55.748;13.194;2023-02-18T14:45:13;5.67;;;2.33;;
11771;SDS011;12556;55.748;13.194;2023-02-18T14:47:59;7.17;;;2.00;;
11771;SDS011;12556;55.748;13.194;2023-02-18T14:50:49;10.57;;;2.27;;
11771;SDS011;12556;55.748;13.194;2023-02-18T14:53:18;7.43;;;1.77;;
11771;SDS011;12556;55.748;13.194;2023-02-18T14:55:48;7.07;;;1.93;;
11771;SDS011;12556;55.748;13.194;2023-02-18T14:58:21;4.80;;;1.97;;
11771;SDS011;12556;55.748;13.194;2023-02-18T15:00:53;7.47;;;2.00;;
11771;SDS011;12556;55.748;13.194;2023-02-18T15:03:20;6.30;;;2.10;;
11771;SDS011;12556;55.748;13.194;2023-02-18T15:05:48;10.27;;;2.17;;
11771;SDS011;12556;55.748;13.194;2023-02-18T15:08:17;8.90;;;1.90;;
11771;SDS011;12556;55.748;13.194;2023-02-18T15:10:45;9.57;;;2.27;;
11771;SDS011;12556;55.748;13.194;2023-02-18T15:13:17;4.47;;;1.90;;
11771;SDS011;12556;55.748;13.194;2023-02-18T15:15:47;5.50;;;2.13;;